createdAt,value
2022-11-20T00:00:28.433Z,96684.66
2022-11-20T00:02:31.054Z,96686.00
2022-11-20T00:04:33.646Z,96678.50
2022-11-20T00:06:36.243Z,96680.97
2022-11-20T00:08:39.315Z,96683.69
2022-11-20T00:10:42.623Z,96685.66
2022-11-20T00:12:46.515Z,96686.72
2022-11-20T00:14:49.082Z,96685.88
2022-11-20T00:16:51.721Z,96682.53
2022-11-20T00:18:54.617Z,96689.47
2022-11-20T00:21:02.836Z,96687.88
2022-11-20T00:23:08.097Z,96686.28
2022-11-20T00:25:10.779Z,96689.84
2022-11-20T00:27:13.397Z,96690.06
2022-11-20T00:29:17.348Z,96684.88
2022-11-20T00:31:20.351Z,96688.50
2022-11-20T00:33:22.949Z,96688.56
2022-11-20T00:35:25.696Z,96686.91
2022-11-20T00:37:28.405Z,96683.50
2022-11-20T00:39:31.002Z,96692.13
2022-11-20T00:41:33.884Z,96691.25
2022-11-20T00:43:37.084Z,96695.44
2022-11-20T00:45:41.425Z,96698.94
2022-11-20T00:47:44.024Z,96688.34
2022-11-20T00:49:46.629Z,96693.53
2022-11-20T00:51:49.212Z,96693.41
2022-11-20T00:53:52.101Z,96698.88
2022-11-20T00:55:56.330Z,96700.66
2022-11-20T00:58:02.393Z,96701.66
2022-11-20T01:00:08.453Z,96702.59
2022-11-20T01:02:12.412Z,96715.66
2022-11-20T01:04:17.127Z,96715.66
2022-11-20T01:06:22.519Z,96709.69
2022-11-20T01:08:25.149Z,96711.31
2022-11-20T01:10:27.869Z,96720.91
2022-11-20T01:12:30.428Z,96714.09
2022-11-20T01:14:33.045Z,96718.53
2022-11-20T01:16:38.174Z,96719.41
2022-11-20T01:18:43.871Z,96719.41
2022-11-20T01:20:46.496Z,96716.09
2022-11-20T01:22:49.074Z,96720.41
2022-11-20T01:24:51.670Z,96723.19
2022-11-20T01:26:54.409Z,96723.28
2022-11-20T01:28:58.541Z,96719.97
2022-11-20T01:31:01.941Z,96726.19
2022-11-20T01:33:04.549Z,96729.72
2022-11-20T01:35:10.595Z,96729.00
2022-11-20T01:37:13.309Z,96729.94
2022-11-20T01:39:18.308Z,96729.13
2022-11-20T01:41:35.418Z,96725.78
2022-11-20T01:43:38.434Z,96723.19
2022-11-20T01:45:58.321Z,96724.13
2022-11-20T01:48:00.998Z,96721.63
2022-11-20T01:50:14.753Z,96720.84
2022-11-20T01:52:20.210Z,96725.16
2022-11-20T01:54:27.542Z,96719.88
2022-11-20T01:56:33.136Z,96719.97
2022-11-20T01:58:41.561Z,96711.34
2022-11-20T02:00:44.765Z,96723.59
2022-11-20T02:02:51.371Z,96722.75
2022-11-20T02:04:58.867Z,96727.16
2022-11-20T02:07:04.567Z,96729.94
2022-11-20T02:09:07.222Z,96730.69
2022-11-20T02:11:10.038Z,96729.03
2022-11-20T02:13:30.333Z,96729.16
2022-11-20T02:15:35.025Z,96731.03
2022-11-20T02:17:37.663Z,96730.25
2022-11-20T02:19:43.718Z,96726.03
2022-11-20T02:21:52.841Z,96724.34
2022-11-20T02:24:02.490Z,96722.59
2022-11-20T02:26:09.509Z,96726.00
2022-11-20T02:28:12.353Z,96730.13
2022-11-20T02:30:15.122Z,96726.53
2022-11-20T02:32:21.320Z,96724.03
2022-11-20T02:34:23.999Z,96728.09
2022-11-20T02:36:29.711Z,96721.94
2022-11-20T02:38:32.317Z,96723.69
2022-11-20T02:40:36.233Z,96727.03
2022-11-20T02:42:39.208Z,96726.09
2022-11-20T02:44:41.808Z,96714.88
2022-11-20T02:46:44.369Z,96719.88
2022-11-20T02:48:46.998Z,96716.13
2022-11-20T02:50:49.643Z,96710.78
2022-11-20T02:52:52.218Z,96713.06
2022-11-20T02:54:54.934Z,96705.25
2022-11-20T02:56:58.860Z,96700.78
2022-11-20T02:59:01.462Z,96706.22
2022-11-20T03:01:04.080Z,96708.19
2022-11-20T03:03:06.731Z,96709.34
2022-11-20T03:05:09.628Z,96707.50
2022-11-20T03:07:12.308Z,96717.13
2022-11-20T03:09:15.099Z,96708.53
2022-11-20T03:11:17.842Z,96699.88
2022-11-20T03:13:21.789Z,96701.06
2022-11-20T03:15:24.424Z,96710.75
2022-11-20T03:17:27.027Z,96699.22
2022-11-20T03:19:29.856Z,96698.41
2022-11-20T03:21:32.519Z,96713.34
2022-11-20T03:23:35.894Z,96707.22
2022-11-20T03:25:38.530Z,96703.91
2022-11-20T03:27:41.100Z,96712.75
2022-11-20T03:29:45.027Z,96710.72
2022-11-20T03:31:47.854Z,96699.81
2022-11-20T03:33:50.680Z,96700.03
2022-11-20T03:35:53.291Z,96695.13
2022-11-20T03:37:55.887Z,96701.28
2022-11-20T03:39:58.532Z,96703.59
2022-11-20T03:42:01.161Z,96706.00
2022-11-20T03:44:06.073Z,96711.31
2022-11-20T03:46:10.268Z,96708.81
2022-11-20T03:48:12.851Z,96707.03
2022-11-20T03:50:16.176Z,96705.63
2022-11-20T03:52:18.752Z,96711.69
2022-11-20T03:54:21.369Z,96708.66
2022-11-20T03:56:26.495Z,96723.13
2022-11-20T03:58:29.139Z,96712.66
2022-11-20T04:00:31.799Z,96709.28
2022-11-20T04:02:35.728Z,96708.53
2022-11-20T04:04:38.344Z,96715.47
2022-11-20T04:06:41.042Z,96712.19
2022-11-20T04:08:47.525Z,96719.00
2022-11-20T04:10:52.346Z,96716.47
2022-11-20T04:12:54.912Z,96717.72
2022-11-20T04:14:57.465Z,96720.38
2022-11-20T04:17:00.028Z,96717.38
2022-11-20T04:19:05.598Z,96713.44
2022-11-20T04:21:08.953Z,96717.56
2022-11-20T04:23:11.505Z,96710.81
2022-11-20T04:25:14.105Z,96712.69
2022-11-20T04:27:16.743Z,96714.19
2022-11-20T04:29:19.698Z,96714.44
2022-11-20T04:31:24.014Z,96713.69
2022-11-20T04:33:28.938Z,96704.78
2022-11-20T04:35:37.751Z,96707.00
2022-11-20T04:37:40.335Z,96707.19
2022-11-20T04:39:43.146Z,96704.13
2022-11-20T04:41:45.739Z,96702.63
2022-11-20T04:43:49.962Z,96708.84
2022-11-20T04:45:52.924Z,96708.16
2022-11-20T04:47:55.525Z,96701.19
2022-11-20T04:49:58.156Z,96703.84
2022-11-20T04:52:02.196Z,96703.72
2022-11-20T04:54:05.106Z,96706.38
2022-11-20T04:56:09.939Z,96704.31
2022-11-20T04:58:12.603Z,96700.44
2022-11-20T05:00:16.651Z,96701.72
2022-11-20T05:02:19.462Z,96696.06
2022-11-20T05:04:22.067Z,96704.97
2022-11-20T05:06:27.022Z,96711.94
2022-11-20T05:08:31.590Z,96697.09
2022-11-20T05:10:34.227Z,96704.09
2022-11-20T05:12:36.824Z,96699.06
2022-11-20T05:14:40.277Z,96700.22
2022-11-20T05:16:42.923Z,96700.34
2022-11-20T05:18:45.667Z,96698.97
2022-11-20T05:20:48.273Z,96695.56
2022-11-20T05:22:50.901Z,96696.44
2022-11-20T05:24:54.846Z,96696.75
2022-11-20T05:26:57.435Z,96692.28
2022-11-20T05:29:00.195Z,96698.38
2022-11-20T05:31:10.014Z,96689.63
2022-11-20T05:33:12.618Z,96693.94
2022-11-20T05:35:15.313Z,96694.09
2022-11-20T05:37:17.874Z,96695.50
2022-11-20T05:39:20.686Z,96696.53
2022-11-20T05:41:24.798Z,96693.31
2022-11-20T05:43:27.372Z,96687.53
2022-11-20T05:45:30.383Z,96683.03
2022-11-20T05:47:35.115Z,96683.81
2022-11-20T05:49:37.778Z,96685.72
2022-11-20T05:51:40.366Z,96686.47
2022-11-20T05:53:48.068Z,96679.59
2022-11-20T05:55:58.619Z,96692.69
2022-11-20T05:58:02.550Z,96688.34
2022-11-20T06:00:05.928Z,96682.88
2022-11-20T06:02:08.521Z,96693.78
2022-11-20T06:04:11.296Z,96689.00
2022-11-20T06:06:14.348Z,96688.94
2022-11-20T06:08:17.321Z,96694.09
2022-11-20T06:10:19.981Z,96689.25
2022-11-20T06:12:22.585Z,96680.00
2022-11-20T06:14:26.622Z,96686.81
2022-11-20T06:16:29.218Z,96684.88
2022-11-20T06:18:32.034Z,96686.69
2022-11-20T06:20:37.912Z,96680.22
2022-11-20T06:22:44.451Z,96688.88
2022-11-20T06:24:50.482Z,96679.34
2022-11-20T06:26:53.372Z,96683.69
2022-11-20T06:28:57.049Z,96682.84
2022-11-20T06:31:01.377Z,96688.47
2022-11-20T06:33:04.180Z,96683.88
2022-11-20T06:35:07.287Z,96683.34
2022-11-20T06:37:09.923Z,96684.78
2022-11-20T06:39:12.700Z,96681.78
2022-11-20T06:41:17.670Z,96687.06
2022-11-20T06:43:20.251Z,96688.16
2022-11-20T06:45:23.087Z,96702.59
2022-11-20T06:47:27.013Z,96695.72
2022-11-20T06:49:29.671Z,96697.81
2022-11-20T06:51:32.263Z,96701.09
2022-11-20T06:53:35.729Z,96697.03
2022-11-20T06:55:38.295Z,96701.84
2022-11-20T06:57:40.918Z,96693.69
2022-11-20T06:59:43.747Z,96695.38
2022-11-20T07:01:46.335Z,96701.38
2022-11-20T07:03:54.440Z,96708.13
2022-11-20T07:05:58.229Z,96706.19
2022-11-20T07:08:01.168Z,96694.31
2022-11-20T07:10:03.791Z,96708.81
2022-11-20T07:12:07.071Z,96702.75
2022-11-20T07:14:09.718Z,96702.19
2022-11-20T07:16:12.352Z,96703.25
2022-11-20T07:18:14.955Z,96706.38
2022-11-20T07:20:19.345Z,96707.97
2022-11-20T07:22:22.698Z,96712.22
2022-11-20T07:24:25.385Z,96712.31
2022-11-20T07:26:28.057Z,96710.84
2022-11-20T07:28:30.626Z,96709.34
2022-11-20T07:30:33.270Z,96712.44
2022-11-20T07:32:35.916Z,96718.41
2022-11-20T07:34:38.494Z,96715.19
2022-11-20T07:36:42.746Z,96716.97
2022-11-20T07:38:45.387Z,96722.47
2022-11-20T07:40:48.027Z,96721.47
2022-11-20T07:42:51.244Z,96720.16
2022-11-20T07:44:53.864Z,96724.84
2022-11-20T07:46:56.458Z,96721.44
2022-11-20T07:48:59.157Z,96722.91
2022-11-20T07:51:01.803Z,96726.16
2022-11-20T07:53:06.935Z,96730.47
2022-11-20T07:55:11.131Z,96717.56
2022-11-20T07:57:13.710Z,96725.56
2022-11-20T07:59:16.535Z,96717.91
2022-11-20T08:01:19.248Z,96718.66
2022-11-20T08:03:25.172Z,96723.56
2022-11-20T08:05:28.506Z,96721.66
2022-11-20T08:07:31.240Z,96716.88
2022-11-20T08:09:35.280Z,96723.50
2022-11-20T08:11:55.720Z,96721.81
2022-11-20T08:14:13.653Z,96727.00
2022-11-20T08:16:16.259Z,96733.34
2022-11-20T08:18:34.888Z,96728.63
2022-11-20T08:20:37.552Z,96719.69
2022-11-20T08:22:40.163Z,96729.34
2022-11-20T08:24:44.112Z,96738.47
2022-11-20T08:26:46.727Z,96734.47
2022-11-20T08:28:49.331Z,96739.34
2022-11-20T08:30:52.070Z,96741.66
2022-11-20T08:32:55.099Z,96744.91
2022-11-20T08:34:57.725Z,96746.00
2022-11-20T08:37:00.396Z,96751.50
2022-11-20T08:39:03.443Z,96749.88
2022-11-20T08:41:26.683Z,96749.91
2022-11-20T08:43:29.321Z,96751.75
2022-11-20T08:45:34.648Z,96752.78
2022-11-20T08:47:37.768Z,96759.91
2022-11-20T08:49:40.345Z,96760.50
2022-11-20T08:51:43.975Z,96766.34
2022-11-20T08:53:46.691Z,96763.66
2022-11-20T08:55:49.686Z,96766.84
2022-11-20T08:57:53.638Z,96764.34
2022-11-20T09:00:06.021Z,96768.16
2022-11-20T09:02:09.879Z,96772.31
2022-11-20T09:04:12.740Z,96764.94
2022-11-20T09:06:16.236Z,96760.78
2022-11-20T09:08:18.922Z,96763.84
2022-11-20T09:10:25.184Z,96764.75
2022-11-20T09:12:28.007Z,96764.44
2022-11-20T09:14:31.970Z,96770.44
2022-11-20T09:16:34.620Z,96775.66
2022-11-20T09:18:38.412Z,96766.31
2022-11-20T09:20:41.051Z,96770.28
2022-11-20T09:22:43.685Z,96768.50
2022-11-20T09:24:46.330Z,96768.34
2022-11-20T09:26:48.933Z,96771.53
2022-11-20T09:28:56.776Z,96779.22
2022-11-20T09:31:02.191Z,96770.28
2022-11-20T09:33:06.448Z,96780.31
2022-11-20T09:35:10.311Z,96773.53
2022-11-20T09:37:12.913Z,96765.91
2022-11-20T09:39:15.510Z,96778.66
2022-11-20T09:41:38.297Z,96780.78
2022-11-20T09:43:52.914Z,96783.50
2022-11-20T09:46:05.164Z,96783.91
2022-11-20T09:48:38.136Z,96786.50
2022-11-20T09:50:48.692Z,96800.84
2022-11-20T09:53:06.498Z,96798.25
2022-11-20T09:55:12.411Z,96800.63
2022-11-20T09:57:21.205Z,96791.06
2022-11-20T09:59:34.948Z,96796.38
2022-11-20T10:01:41.708Z,96802.47
2022-11-20T10:03:53.644Z,96794.16
2022-11-20T10:05:56.897Z,96794.00
2022-11-20T10:08:14.617Z,96802.09
2022-11-20T10:10:19.034Z,96791.91
2022-11-20T10:12:29.103Z,96792.03
2022-11-20T10:14:41.075Z,96793.56
2022-11-20T10:16:56.423Z,96795.41
2022-11-20T10:19:13.230Z,96789.38
2022-11-20T10:21:25.753Z,96791.19
2022-11-20T10:23:48.055Z,96787.50
2022-11-20T10:25:58.213Z,96793.72
2022-11-20T10:28:17.577Z,96789.59
2022-11-20T10:30:22.960Z,96789.44
2022-11-20T10:32:34.711Z,96792.91
2022-11-20T10:34:50.881Z,96798.38
2022-11-20T10:36:57.885Z,96787.31
2022-11-20T10:39:05.873Z,96795.88
2022-11-20T10:41:31.958Z,96785.47
2022-11-20T10:43:37.596Z,96792.69
2022-11-20T10:45:52.297Z,96792.63
2022-11-20T10:48:00.983Z,96793.66
2022-11-20T10:50:06.728Z,96793.28
2022-11-20T10:52:17.880Z,96789.50
2022-11-20T10:54:29.301Z,96783.94
2022-11-20T10:56:38.006Z,96780.22
2022-11-20T10:58:48.295Z,96775.88
2022-11-20T11:00:50.951Z,96781.69
2022-11-20T11:02:58.411Z,96766.03
2022-11-20T11:05:14.539Z,96778.94
2022-11-20T11:07:22.493Z,96767.44
2022-11-20T11:09:34.128Z,96775.25
2022-11-20T11:11:36.853Z,96777.53
2022-11-20T11:13:39.484Z,96787.75
2022-11-20T11:15:43.154Z,96773.22
2022-11-20T11:17:49.289Z,96770.56
2022-11-20T11:20:05.761Z,96759.75
2022-11-20T11:22:18.790Z,96763.63
2022-11-20T11:24:41.780Z,96750.50
2022-11-20T11:26:54.079Z,96758.88
2022-11-20T11:28:58.209Z,96751.44
2022-11-20T11:31:01.055Z,96744.16
2022-11-20T11:33:08.870Z,96743.47
2022-11-20T11:35:24.440Z,96738.84
2022-11-20T11:37:36.698Z,96740.31
2022-11-20T11:39:43.942Z,96739.09
2022-11-20T11:41:47.632Z,96734.75
2022-11-20T11:44:12.973Z,96735.75
2022-11-20T11:46:29.532Z,96733.75
2022-11-20T11:48:32.126Z,96733.41
2022-11-20T11:50:36.119Z,96730.88
2022-11-20T11:52:46.259Z,96730.66
2022-11-20T11:54:54.705Z,96719.03
2022-11-20T11:57:01.092Z,96727.69
2022-11-20T11:59:11.902Z,96722.28
2022-11-20T12:01:28.177Z,96718.03
2022-11-20T12:03:37.269Z,96716.63
2022-11-20T12:05:46.931Z,96718.19
2022-11-20T12:07:54.990Z,96707.19
2022-11-20T12:09:59.707Z,96707.91
2022-11-20T12:12:10.900Z,96710.03
2022-11-20T12:14:20.650Z,96706.41
2022-11-20T12:16:23.571Z,96706.59
2022-11-20T12:18:26.236Z,96698.78
2022-11-20T12:20:38.124Z,96700.63
2022-11-20T12:22:46.882Z,96703.06
2022-11-20T12:24:57.274Z,96700.91
2022-11-20T12:27:16.149Z,96704.50
2022-11-20T12:29:27.060Z,96695.13
2022-11-20T12:31:47.025Z,96696.63
2022-11-20T12:34:02.927Z,96700.06
2022-11-20T12:36:18.398Z,96695.91
2022-11-20T12:38:47.239Z,96696.50
2022-11-20T12:40:56.303Z,96690.53
2022-11-20T12:43:28.606Z,96692.28
2022-11-20T12:46:03.801Z,96697.25
2022-11-20T12:48:24.396Z,96695.97
2022-11-20T12:50:53.403Z,96694.59
2022-11-20T12:53:05.605Z,96689.38
2022-11-20T12:55:22.571Z,96703.75
2022-11-20T12:57:36.454Z,96699.59
2022-11-20T13:00:03.167Z,96704.09
2022-11-20T13:02:26.370Z,96700.75
2022-11-20T13:04:52.185Z,96691.56
2022-11-20T13:06:56.159Z,96684.28
2022-11-20T13:08:58.833Z,96691.66
2022-11-20T13:11:11.995Z,96695.09
2022-11-20T13:13:22.051Z,96692.91
2022-11-20T13:15:38.529Z,96688.25
2022-11-20T13:17:46.823Z,96678.72
2022-11-20T13:19:53.980Z,96689.84
2022-11-20T13:21:56.627Z,96684.72
2022-11-20T13:24:06.456Z,96682.03
2022-11-20T13:26:19.429Z,96687.06
2022-11-20T13:28:30.065Z,96681.88
2022-11-20T13:30:33.502Z,96679.31
2022-11-20T13:32:36.102Z,96688.28
2022-11-20T13:34:38.742Z,96683.53
2022-11-20T13:36:51.533Z,96676.94
2022-11-20T13:38:55.918Z,96673.06
2022-11-20T13:41:20.595Z,96683.53
2022-11-20T13:43:38.735Z,96674.25
2022-11-20T13:45:41.403Z,96672.13
2022-11-20T13:47:50.418Z,96668.53
2022-11-20T13:49:55.376Z,96662.00
2022-11-20T13:52:24.996Z,96657.81
2022-11-20T13:54:52.917Z,96656.22
2022-11-20T13:57:12.718Z,96647.63
2022-11-20T13:59:36.068Z,96645.56
2022-11-20T14:01:40.203Z,96639.91
2022-11-20T14:04:04.990Z,96648.53
2022-11-20T14:06:14.535Z,96636.31
2022-11-20T14:08:28.256Z,96636.16
2022-11-20T14:10:32.663Z,96628.88
2022-11-20T14:12:37.783Z,96637.78
2022-11-20T14:14:50.546Z,96626.97
2022-11-20T14:16:54.373Z,96630.41
2022-11-20T14:18:57.994Z,96635.88
2022-11-20T14:21:02.640Z,96629.25
2022-11-20T14:23:06.100Z,96632.84
2022-11-20T14:25:24.028Z,96641.31
2022-11-20T14:27:26.677Z,96635.88
2022-11-20T14:29:31.914Z,96636.59
2022-11-20T14:31:35.867Z,96630.09
2022-11-20T14:33:39.590Z,96632.28
2022-11-20T14:35:48.109Z,96632.63
2022-11-20T14:37:50.714Z,96628.72
2022-11-20T14:39:55.642Z,96632.47
2022-11-20T14:41:58.276Z,96624.00
2022-11-20T14:44:03.032Z,96621.59
2022-11-20T14:46:08.200Z,96620.78
2022-11-20T14:48:12.931Z,96620.13
2022-11-20T14:50:21.365Z,96619.09
2022-11-20T14:52:25.806Z,96610.00
2022-11-20T14:54:29.302Z,96608.78
2022-11-20T14:56:31.979Z,96606.47
2022-11-20T14:58:35.710Z,96603.41
2022-11-20T15:00:38.425Z,96606.28
2022-11-20T15:02:43.025Z,96598.38
2022-11-20T15:04:51.878Z,96597.75
2022-11-20T15:06:56.775Z,96598.69
2022-11-20T15:09:00.009Z,96601.34
2022-11-20T15:11:03.919Z,96603.97
2022-11-20T15:13:13.260Z,96593.78
2022-11-20T15:15:21.401Z,96586.03
2022-11-20T15:17:24.610Z,96591.44
2022-11-20T15:19:29.412Z,96594.06
2022-11-20T15:21:33.382Z,96592.91
2022-11-20T15:23:36.525Z,96586.59
2022-11-20T15:25:40.338Z,96585.78
2022-11-20T15:27:43.499Z,96582.91
2022-11-20T15:29:46.106Z,96579.47
2022-11-20T15:31:48.745Z,96574.53
2022-11-20T15:33:51.612Z,96571.38
2022-11-20T15:35:54.320Z,96566.28
2022-11-20T15:37:58.776Z,96564.72
2022-11-20T15:40:01.426Z,96567.53
2022-11-20T15:42:04.193Z,96565.06
2022-11-20T15:44:07.137Z,96561.56
2022-11-20T15:46:14.717Z,96550.38
2022-11-20T15:48:22.107Z,96550.50
2022-11-20T15:50:30.497Z,96542.84
2022-11-20T15:52:42.000Z,96545.56
2022-11-20T15:54:46.256Z,96545.66
2022-11-20T15:56:49.348Z,96545.66
2022-11-20T15:58:51.946Z,96549.28
2022-11-20T16:00:54.918Z,96550.28
2022-11-20T16:02:57.572Z,96551.22
2022-11-20T16:05:00.169Z,96559.94
2022-11-20T16:07:02.862Z,96558.25
2022-11-20T16:09:05.543Z,96552.28
2022-11-20T16:11:14.227Z,96562.84
2022-11-20T16:13:36.453Z,96549.91
2022-11-20T16:15:48.175Z,96550.88
2022-11-20T16:17:50.755Z,96563.03
2022-11-20T16:19:53.358Z,96554.59
2022-11-20T16:22:01.202Z,96547.75
2022-11-20T16:24:07.160Z,96553.59
2022-11-20T16:26:16.745Z,96558.03
2022-11-20T16:28:20.520Z,96548.44
2022-11-20T16:30:23.258Z,96550.88
2022-11-20T16:32:25.903Z,96550.25
2022-11-20T16:34:28.860Z,96548.81
2022-11-20T16:36:32.227Z,96541.06
2022-11-20T16:38:34.941Z,96544.69
2022-11-20T16:40:37.554Z,96536.72
2022-11-20T16:42:41.515Z,96541.34
2022-11-20T16:44:47.514Z,96531.06
2022-11-20T16:46:50.240Z,96535.72
2022-11-20T16:48:58.029Z,96542.31
2022-11-20T16:51:00.677Z,96541.31
2022-11-20T16:53:03.246Z,96536.44
2022-11-20T16:55:06.835Z,96538.25
2022-11-20T16:57:09.493Z,96527.06
2022-11-20T16:59:14.336Z,96530.34
2022-11-20T17:01:20.855Z,96537.50
2022-11-20T17:03:23.542Z,96533.19
2022-11-20T17:05:26.167Z,96522.88
2022-11-20T17:07:28.829Z,96525.66
2022-11-20T17:09:31.489Z,96529.16
2022-11-20T17:11:34.688Z,96528.31
2022-11-20T17:13:39.992Z,96521.28
2022-11-20T17:15:44.120Z,96523.13
2022-11-20T17:17:46.736Z,96529.16
2022-11-20T17:19:49.374Z,96518.81
2022-11-20T17:21:51.998Z,96529.19
2022-11-20T17:23:54.603Z,96522.94
2022-11-20T17:26:03.523Z,96520.41
2022-11-20T17:28:06.479Z,96524.88
2022-11-20T17:30:09.990Z,96519.16
2022-11-20T17:32:13.993Z,96514.97
2022-11-20T17:34:16.986Z,96517.44
2022-11-20T17:36:20.307Z,96517.63
2022-11-20T17:38:23.432Z,96511.16
2022-11-20T17:40:27.736Z,96505.53
2022-11-20T17:42:36.680Z,96503.44
2022-11-20T17:44:40.914Z,96509.78
2022-11-20T17:46:43.591Z,96507.25
2022-11-20T17:48:50.936Z,96509.91
2022-11-20T17:50:53.582Z,96504.84
2022-11-20T17:52:56.179Z,96505.72
2022-11-20T17:54:59.770Z,96500.53
2022-11-20T17:57:19.712Z,96497.56
2022-11-20T17:59:22.945Z,96492.56
2022-11-20T18:01:25.889Z,96487.38
2022-11-20T18:03:28.510Z,96489.97
2022-11-20T18:05:32.437Z,96490.41
2022-11-20T18:07:40.241Z,96487.97
2022-11-20T18:09:44.199Z,96487.31
2022-11-20T18:11:46.825Z,96480.50
2022-11-20T18:14:09.882Z,96489.16
2022-11-20T18:16:12.919Z,96478.44
2022-11-20T18:18:15.526Z,96488.75
2022-11-20T18:20:29.457Z,96484.66
2022-11-20T18:22:35.198Z,96476.81
2022-11-20T18:24:39.472Z,96469.88
2022-11-20T18:26:44.549Z,96455.31
2022-11-20T18:28:47.843Z,96451.84
2022-11-20T18:30:50.477Z,96454.38
2022-11-20T18:32:53.061Z,96449.25
2022-11-20T18:34:55.664Z,96436.31
2022-11-20T18:36:58.344Z,96436.59
2022-11-20T18:39:02.618Z,96442.97
2022-11-20T18:41:05.229Z,96441.22
2022-11-20T18:43:25.725Z,96438.59
2022-11-20T18:45:29.027Z,96428.66
2022-11-20T18:47:35.663Z,96435.44
2022-11-20T18:49:38.897Z,96436.75
2022-11-20T18:51:44.041Z,96433.50
2022-11-20T18:53:47.651Z,96421.31
2022-11-20T18:55:51.730Z,96423.34
2022-11-20T18:57:55.157Z,96426.13
2022-11-20T19:00:04.838Z,96419.31
2022-11-20T19:02:12.200Z,96421.31
2022-11-20T19:04:16.494Z,96423.94
2022-11-20T19:06:19.696Z,96421.78
2022-11-20T19:08:22.254Z,96419.13
2022-11-20T19:10:26.888Z,96416.16
2022-11-20T19:12:31.015Z,96410.97
2022-11-20T19:14:33.617Z,96424.72
2022-11-20T19:16:36.648Z,96425.31
2022-11-20T19:18:39.606Z,96437.22
2022-11-20T19:20:42.223Z,96436.00
2022-11-20T19:22:44.889Z,96432.34
2022-11-20T19:24:47.495Z,96445.44
2022-11-20T19:26:50.137Z,96448.47
2022-11-20T19:28:54.722Z,96448.41
2022-11-20T19:30:57.353Z,96446.31
2022-11-20T19:32:59.952Z,96447.31
2022-11-20T19:35:03.549Z,96450.91
2022-11-20T19:37:06.334Z,96437.63
2022-11-20T19:39:11.040Z,96443.19
2022-11-20T19:41:14.442Z,96437.63
2022-11-20T19:43:17.532Z,96442.13
2022-11-20T19:45:21.565Z,96441.94
2022-11-20T19:47:35.397Z,96433.34
2022-11-20T19:49:46.753Z,96429.63
2022-11-20T19:51:51.011Z,96426.22
2022-11-20T19:53:53.985Z,96427.03
2022-11-20T19:55:57.589Z,96420.84
2022-11-20T19:58:00.323Z,96427.13
2022-11-20T20:00:03.047Z,96422.78
2022-11-20T20:02:07.284Z,96425.75
2022-11-20T20:04:10.161Z,96420.97
2022-11-20T20:06:15.125Z,96423.78
2022-11-20T20:08:17.875Z,96422.31
2022-11-20T20:10:20.504Z,96430.09
2022-11-20T20:12:23.117Z,96420.38
2022-11-20T20:14:26.151Z,96412.19
2022-11-20T20:16:28.961Z,96412.47
2022-11-20T20:18:32.877Z,96428.09
2022-11-20T20:20:35.506Z,96424.84
2022-11-20T20:22:41.096Z,96426.28
2022-11-20T20:24:43.780Z,96414.06
2022-11-20T20:26:46.346Z,96437.50
2022-11-20T20:28:49.246Z,96419.34
2022-11-20T20:30:51.897Z,96423.03
2022-11-20T20:32:56.470Z,96423.44
2022-11-20T20:35:00.891Z,96438.78
2022-11-20T20:37:05.200Z,96418.72
2022-11-20T20:39:07.835Z,96416.59
2022-11-20T20:41:10.771Z,96416.19
2022-11-20T20:43:13.440Z,96431.13
2022-11-20T20:45:15.209Z,96423.63
2022-11-20T20:47:17.818Z,96424.94
2022-11-20T20:49:20.449Z,96428.75
2022-11-20T20:51:24.827Z,96436.66
2022-11-20T20:53:28.078Z,96431.47
2022-11-20T20:55:30.684Z,96425.97
2022-11-20T20:57:34.030Z,96434.56
2022-11-20T20:59:36.734Z,96441.44
2022-11-20T21:01:39.422Z,96444.31
2022-11-20T21:03:42.634Z,96436.03
2022-11-20T21:05:45.480Z,96441.00
2022-11-20T21:08:06.901Z,96452.69
2022-11-20T21:10:09.854Z,96442.97
2022-11-20T21:12:12.479Z,96453.38
2022-11-20T21:14:15.191Z,96455.03
2022-11-20T21:16:20.581Z,96458.50
2022-11-20T21:18:24.173Z,96458.44
2022-11-20T21:20:44.455Z,96454.97
2022-11-20T21:22:47.081Z,96457.81
2022-11-20T21:24:51.003Z,96463.13
2022-11-20T21:26:53.700Z,96463.31
2022-11-20T21:28:58.009Z,96469.13
2022-11-20T21:31:05.635Z,96471.38
2022-11-20T21:33:08.304Z,96464.88
2022-11-20T21:35:10.885Z,96466.28
2022-11-20T21:37:13.520Z,96462.19
2022-11-20T21:39:17.774Z,96464.03
2022-11-20T21:41:22.014Z,96464.91
2022-11-20T21:43:24.632Z,96459.06
2022-11-20T21:45:27.212Z,96485.03
2022-11-20T21:47:31.007Z,96463.94
2022-11-20T21:49:33.645Z,96460.66
2022-11-20T21:51:36.559Z,96479.00
2022-11-20T21:53:39.324Z,96463.44
2022-11-20T21:55:41.983Z,96460.34
2022-11-20T21:57:45.947Z,96456.53
2022-11-20T21:59:48.528Z,96455.78
2022-11-20T22:01:51.188Z,96460.03
2022-11-20T22:03:56.702Z,96458.31
2022-11-20T22:06:00.334Z,96462.28
2022-11-20T22:08:02.975Z,96457.09
2022-11-20T22:10:06.247Z,96462.97
2022-11-20T22:12:08.927Z,96465.53
2022-11-20T22:14:21.304Z,96477.81
2022-11-20T22:16:24.704Z,96476.81
2022-11-20T22:18:27.301Z,96479.78
2022-11-20T22:20:29.895Z,96484.22
2022-11-20T22:22:32.792Z,96478.09
2022-11-20T22:24:35.384Z,96484.38
2022-11-20T22:26:40.471Z,96492.13
2022-11-20T22:28:43.385Z,96483.69
2022-11-20T22:30:47.315Z,96491.00
2022-11-20T22:32:49.950Z,96495.81
2022-11-20T22:34:52.595Z,96495.03
2022-11-20T22:36:55.348Z,96490.41
2022-11-20T22:38:58.893Z,96489.03
2022-11-20T22:41:05.538Z,96493.34
2022-11-20T22:43:08.111Z,96499.28
2022-11-20T22:45:12.035Z,96485.41
2022-11-20T22:47:16.020Z,96496.53
2022-11-20T22:49:18.601Z,96490.53
2022-11-20T22:51:23.374Z,96494.09
2022-11-20T22:53:26.255Z,96491.78
2022-11-20T22:55:28.828Z,96496.88
2022-11-20T22:57:32.485Z,96494.03
2022-11-20T22:59:35.077Z,96483.19
2022-11-20T23:01:38.414Z,96490.47
2022-11-20T23:03:43.694Z,96491.09
2022-11-20T23:05:46.340Z,96493.94
2022-11-20T23:07:48.954Z,96493.63
2022-11-20T23:09:51.541Z,96500.56
2022-11-20T23:11:54.118Z,96490.47
2022-11-20T23:13:58.573Z,96498.19
2022-11-20T23:16:03.278Z,96490.66
2022-11-20T23:18:05.988Z,96505.34
2022-11-20T23:20:11.680Z,96501.19
2022-11-20T23:22:14.255Z,96496.28
2022-11-20T23:24:16.844Z,96497.38
2022-11-20T23:26:23.312Z,96494.56
2022-11-20T23:28:25.929Z,96490.06
2022-11-20T23:30:28.509Z,96498.53
2022-11-20T23:32:31.075Z,96498.47
2022-11-20T23:34:33.635Z,96499.47
2022-11-20T23:36:37.572Z,96487.81
2022-11-20T23:38:40.432Z,96492.53
2022-11-20T23:40:43.011Z,96490.75
2022-11-20T23:42:59.541Z,96488.88
2022-11-20T23:45:02.161Z,96486.00
2022-11-20T23:47:07.771Z,96492.38
2022-11-20T23:49:10.461Z,96493.94
2022-11-20T23:51:13.429Z,96496.69
2022-11-20T23:53:18.644Z,96488.31
2022-11-20T23:55:21.327Z,96485.88
2022-11-20T23:57:23.897Z,96491.16
2022-11-20T23:59:26.495Z,96492.59
